sensor_id;sensor_type;location;lat;lon;timestamp;temperature;humidity
29207;DHT22;16247;50.840;4.382;2023-03-01T00:00:39;3.90;99.90
29207;DHT22;16247;50.840;4.382;2023-03-01T00:03:05;4.10;99.90
29207;DHT22;16247;50.840;4.382;2023-03-01T00:05:33;4.10;99.90
29207;DHT22;16247;50.840;4.382;2023-03-01T00:07:59;3.90;99.90
29207;DHT22;16247;50.840;4.382;2023-03-01T00:10:26;4.10;99.90
29207;DHT22;16247;50.840;4.382;2023-03-01T00:12:51;4.10;99.90
29207;DHT22;16247;50.840;4.382;2023-03-01T00:15:17;4.10;99.90
29207;DHT22;16247;50.840;4.382;2023-03-01T00:21:16;3.90;99.90
29207;DHT22;16247;50.840;4.382;2023-03-01T00:27:04;3.90;99.90
29207;DHT22;16247;50.840;4.382;2023-03-01T00:29:35;3.80;99.90
29207;DHT22;16247;50.840;4.382;2023-03-01T00:32:21;3.70;99.90
29207;DHT22;16247;50.840;4.382;2023-03-01T00:34:54;3.70;99.90
29207;DHT22;16247;50.840;4.382;2023-03-01T00:40:42;3.70;99.90
29207;DHT22;16247;50.840;4.382;2023-03-01T00:43:16;3.60;99.90
29207;DHT22;16247;50.840;4.382;2023-03-01T00:45:41;3.60;99.90
29207;DHT22;16247;50.840;4.382;2023-03-01T00:48:07;3.60;99.90
29207;DHT22;16247;50.840;4.382;2023-03-01T00:50:33;3.60;99.90
29207;DHT22;16247;50.840;4.382;2023-03-01T00:52:58;3.70;99.90
29207;DHT22;16247;50.840;4.382;2023-03-01T00:55:24;3.50;99.90
29207;DHT22;16247;50.840;4.382;2023-03-01T00:57:50;3.70;99.90
29207;DHT22;16247;50.840;4.382;2023-03-01T01:00:17;3.60;99.90
29207;DHT22;16247;50.840;4.382;2023-03-01T01:02:43;3.50;99.90
29207;DHT22;16247;50.840;4.382;2023-03-01T01:05:09;3.70;99.90
29207;DHT22;16247;50.840;4.382;2023-03-01T01:07:35;3.40;99.90
29207;DHT22;16247;50.840;4.382;2023-03-01T01:10:00;3.50;99.90
29207;DHT22;16247;50.840;4.382;2023-03-01T01:12:27;3.60;99.90
29207;DHT22;16247;50.840;4.382;2023-03-01T01:14:53;3.40;99.90
29207;DHT22;16247;50.840;4.382;2023-03-01T01:17:20;3.40;99.90
29207;DHT22;16247;50.840;4.382;2023-03-01T01:19:46;3.30;99.90
29207;DHT22;16247;50.840;4.382;2023-03-01T01:22:11;3.20;99.90
29207;DHT22;16247;50.840;4.382;2023-03-01T01:24:37;3.50;99.90
29207;DHT22;16247;50.840;4.382;2023-03-01T01:27:03;3.60;99.90
29207;DHT22;16247;50.840;4.382;2023-03-01T01:29:28;3.40;99.90
29207;DHT22;16247;50.840;4.382;2023-03-01T01:31:55;3.30;99.90
29207;DHT22;16247;50.840;4.382;2023-03-01T01:34:21;3.50;99.90
29207;DHT22;16247;50.840;4.382;2023-03-01T01:36:52;3.50;99.90
29207;DHT22;16247;50.840;4.382;2023-03-01T01:39:21;3.30;99.90
29207;DHT22;16247;50.840;4.382;2023-03-01T01:41:50;3.60;99.90
29207;DHT22;16247;50.840;4.382;2023-03-01T01:44:21;3.10;99.90
29207;DHT22;16247;50.840;4.382;2023-03-01T01:47:05;3.40;99.90
29207;DHT22;16247;50.840;4.382;2023-03-01T01:49:51;3.40;99.90
29207;DHT22;16247;50.840;4.382;2023-03-01T01:52:24;3.20;99.90
29207;DHT22;16247;50.840;4.382;2023-03-01T01:58:15;3.10;99.90
29207;DHT22;16247;50.840;4.382;2023-03-01T02:00:43;3.20;99.90
29207;DHT22;16247;50.840;4.382;2023-03-01T02:03:14;3.30;99.90
29207;DHT22;16247;50.840;4.382;2023-03-01T02:08:28;3.10;99.90
29207;DHT22;16247;50.840;4.382;2023-03-01T02:10:56;2.90;99.90
29207;DHT22;16247;50.840;4.382;2023-03-01T02:13:25;3.10;99.90
29207;DHT22;16247;50.840;4.382;2023-03-01T02:15:51;3.30;99.90
29207;DHT22;16247;50.840;4.382;2023-03-01T02:18:18;3.30;99.90
29207;DHT22;16247;50.840;4.382;2023-03-01T02:23:36;3.00;99.90
29207;DHT22;16247;50.840;4.382;2023-03-01T02:26:29;2.90;99.90
29207;DHT22;16247;50.840;4.382;2023-03-01T02:28:59;3.00;99.90
29207;DHT22;16247;50.840;4.382;2023-03-01T02:31:27;2.80;99.90
29207;DHT22;16247;50.840;4.382;2023-03-01T02:34:22;3.10;99.90
29207;DHT22;16247;50.840;4.382;2023-03-01T02:37:13;2.90;99.90
29207;DHT22;16247;50.840;4.382;2023-03-01T02:39:46;2.80;99.90
29207;DHT22;16247;50.840;4.382;2023-03-01T02:42:21;3.10;99.90
29207;DHT22;16247;50.840;4.382;2023-03-01T02:44:53;3.20;99.90
29207;DHT22;16247;50.840;4.382;2023-03-01T02:56:22;2.80;99.90
29207;DHT22;16247;50.840;4.382;2023-03-01T02:58:48;2.90;99.90
29207;DHT22;16247;50.840;4.382;2023-03-01T03:01:18;3.10;99.90
29207;DHT22;16247;50.840;4.382;2023-03-01T03:03:44;3.10;99.90
29207;DHT22;16247;50.840;4.382;2023-03-01T03:06:10;2.90;99.90
29207;DHT22;16247;50.840;4.382;2023-03-01T03:08:36;3.10;99.90
29207;DHT22;16247;50.840;4.382;2023-03-01T03:11:02;2.70;99.90
29207;DHT22;16247;50.840;4.382;2023-03-01T03:13:27;2.80;99.90
29207;DHT22;16247;50.840;4.382;2023-03-01T03:15:55;2.90;99.90
29207;DHT22;16247;50.840;4.382;2023-03-01T03:18:23;2.80;99.90
29207;DHT22;16247;50.840;4.382;2023-03-01T03:20:51;2.70;99.90
29207;DHT22;16247;50.840;4.382;2023-03-01T03:23:20;2.60;99.90
29207;DHT22;16247;50.840;4.382;2023-03-01T03:25:48;2.80;99.90
29207;DHT22;16247;50.840;4.382;2023-03-01T03:28:14;2.70;99.90
29207;DHT22;16247;50.840;4.382;2023-03-01T03:34:03;2.60;99.90
29207;DHT22;16247;50.840;4.382;2023-03-01T03:36:29;2.70;99.90
29207;DHT22;16247;50.840;4.382;2023-03-01T03:38:55;2.50;99.90
29207;DHT22;16247;50.840;4.382;2023-03-01T03:41:30;2.70;99.90
29207;DHT22;16247;50.840;4.382;2023-03-01T03:43:56;2.40;99.90
29207;DHT22;16247;50.840;4.382;2023-03-01T03:46:21;2.70;99.90
29207;DHT22;16247;50.840;4.382;2023-03-01T03:48:47;2.60;99.90
29207;DHT22;16247;50.840;4.382;2023-03-01T03:51:14;2.40;99.90
29207;DHT22;16247;50.840;4.382;2023-03-01T03:53:41;2.60;99.90
29207;DHT22;16247;50.840;4.382;2023-03-01T03:56:08;2.50;99.90
29207;DHT22;16247;50.840;4.382;2023-03-01T03:58:34;2.30;99.90
29207;DHT22;16247;50.840;4.382;2023-03-01T04:01:00;2.50;99.90
29207;DHT22;16247;50.840;4.382;2023-03-01T04:03:27;2.30;99.90
29207;DHT22;16247;50.840;4.382;2023-03-01T04:05:53;2.40;99.90
29207;DHT22;16247;50.840;4.382;2023-03-01T04:08:20;2.20;99.90
29207;DHT22;16247;50.840;4.382;2023-03-01T04:10:48;2.50;99.90
29207;DHT22;16247;50.840;4.382;2023-03-01T04:13:17;2.30;99.90
29207;DHT22;16247;50.840;4.382;2023-03-01T04:15:50;2.20;99.90
29207;DHT22;16247;50.840;4.382;2023-03-01T04:18:18;2.30;99.90
29207;DHT22;16247;50.840;4.382;2023-03-01T04:20:45;2.40;99.90
29207;DHT22;16247;50.840;4.382;2023-03-01T04:23:16;2.40;99.90
29207;DHT22;16247;50.840;4.382;2023-03-01T04:26:02;2.10;99.90
29207;DHT22;16247;50.840;4.382;2023-03-01T04:28:40;2.20;99.90
29207;DHT22;16247;50.840;4.382;2023-03-01T04:31:18;2.00;99.90
29207;DHT22;16247;50.840;4.382;2023-03-01T04:33:51;1.90;99.90
29207;DHT22;16247;50.840;4.382;2023-03-01T04:36:19;2.00;99.90
29207;DHT22;16247;50.840;4.382;2023-03-01T04:38:45;2.20;99.90
29207;DHT22;16247;50.840;4.382;2023-03-01T04:41:18;2.00;99.90
29207;DHT22;16247;50.840;4.382;2023-03-01T04:43:44;2.20;99.90
29207;DHT22;16247;50.840;4.382;2023-03-01T04:46:15;2.00;99.90
29207;DHT22;16247;50.840;4.382;2023-03-01T04:48:42;2.20;99.90
29207;DHT22;16247;50.840;4.382;2023-03-01T04:51:08;2.00;99.90
29207;DHT22;16247;50.840;4.382;2023-03-01T04:53:35;2.10;99.90
29207;DHT22;16247;50.840;4.382;2023-03-01T04:56:04;2.00;99.90
29207;DHT22;16247;50.840;4.382;2023-03-01T04:58:30;2.10;99.90
29207;DHT22;16247;50.840;4.382;2023-03-01T05:00:56;2.30;99.90
29207;DHT22;16247;50.840;4.382;2023-03-01T05:03:22;2.00;99.90
29207;DHT22;16247;50.840;4.382;2023-03-01T05:05:51;1.90;99.90
29207;DHT22;16247;50.840;4.382;2023-03-01T05:08:18;1.90;99.90
29207;DHT22;16247;50.840;4.382;2023-03-01T05:10:52;1.90;99.90
29207;DHT22;16247;50.840;4.382;2023-03-01T05:13:20;2.00;99.90
29207;DHT22;16247;50.840;4.382;2023-03-01T05:16:24;2.10;99.90
29207;DHT22;16247;50.840;4.382;2023-03-01T05:22:11;1.90;99.90
29207;DHT22;16247;50.840;4.382;2023-03-01T05:24:38;1.90;99.90
29207;DHT22;16247;50.840;4.382;2023-03-01T05:27:04;1.90;99.90
29207;DHT22;16247;50.840;4.382;2023-03-01T05:29:31;1.70;99.90
29207;DHT22;16247;50.840;4.382;2023-03-01T05:32:01;1.60;99.90
29207;DHT22;16247;50.840;4.382;2023-03-01T05:34:35;1.60;99.90
29207;DHT22;16247;50.840;4.382;2023-03-01T05:37:02;1.70;99.90
29207;DHT22;16247;50.840;4.382;2023-03-01T05:39:36;1.60;99.90
29207;DHT22;16247;50.840;4.382;2023-03-01T05:42:05;1.60;99.90
29207;DHT22;16247;50.840;4.382;2023-03-01T05:44:37;1.60;99.90
29207;DHT22;16247;50.840;4.382;2023-03-01T05:47:03;1.60;99.90
29207;DHT22;16247;50.840;4.382;2023-03-01T05:49:28;1.80;99.90
29207;DHT22;16247;50.840;4.382;2023-03-01T05:51:58;1.70;99.90
29207;DHT22;16247;50.840;4.382;2023-03-01T05:54:27;1.90;99.90
29207;DHT22;16247;50.840;4.382;2023-03-01T05:56:52;1.80;99.90
29207;DHT22;16247;50.840;4.382;2023-03-01T05:59:19;1.60;99.90
29207;DHT22;16247;50.840;4.382;2023-03-01T06:02:02;1.70;99.90
29207;DHT22;16247;50.840;4.382;2023-03-01T06:04:28;1.60;99.90
29207;DHT22;16247;50.840;4.382;2023-03-01T06:06:53;1.80;99.90
29207;DHT22;16247;50.840;4.382;2023-03-01T06:09:19;1.70;99.90
29207;DHT22;16247;50.840;4.382;2023-03-01T06:11:45;1.80;99.90
29207;DHT22;16247;50.840;4.382;2023-03-01T06:14:11;1.60;99.90
29207;DHT22;16247;50.840;4.382;2023-03-01T06:16:40;1.80;99.90
29207;DHT22;16247;50.840;4.382;2023-03-01T06:19:05;1.60;99.90
29207;DHT22;16247;50.840;4.382;2023-03-01T06:21:33;1.90;99.90
29207;DHT22;16247;50.840;4.382;2023-03-01T06:24:00;1.70;99.90
29207;DHT22;16247;50.840;4.382;2023-03-01T06:26:26;1.60;99.90
29207;DHT22;16247;50.840;4.382;2023-03-01T06:28:53;1.60;99.90
29207;DHT22;16247;50.840;4.382;2023-03-01T06:31:19;1.60;99.90
29207;DHT22;16247;50.840;4.382;2023-03-01T06:33:45;1.70;99.90
29207;DHT22;16247;50.840;4.382;2023-03-01T06:36:12;1.70;99.90
29207;DHT22;16247;50.840;4.382;2023-03-01T06:39:05;1.70;99.90
29207;DHT22;16247;50.840;4.382;2023-03-01T06:41:35;1.60;99.90
29207;DHT22;16247;50.840;4.382;2023-03-01T06:44:01;1.50;99.90
29207;DHT22;16247;50.840;4.382;2023-03-01T06:46:29;1.60;99.90
29207;DHT22;16247;50.840;4.382;2023-03-01T06:48:55;1.90;99.90
29207;DHT22;16247;50.840;4.382;2023-03-01T06:51:21;1.70;99.90
29207;DHT22;16247;50.840;4.382;2023-03-01T06:53:47;1.60;99.90
29207;DHT22;16247;50.840;4.382;2023-03-01T06:56:12;1.70;99.90
29207;DHT22;16247;50.840;4.382;2023-03-01T06:58:38;1.60;99.90
29207;DHT22;16247;50.840;4.382;2023-03-01T07:01:08;1.60;99.90
29207;DHT22;16247;50.840;4.382;2023-03-01T07:03:35;1.70;99.90
29207;DHT22;16247;50.840;4.382;2023-03-01T07:06:01;1.80;99.90
29207;DHT22;16247;50.840;4.382;2023-03-01T07:08:27;1.90;99.90
29207;DHT22;16247;50.840;4.382;2023-03-01T07:10:57;2.10;99.90
29207;DHT22;16247;50.840;4.382;2023-03-01T07:13:23;1.90;99.90
29207;DHT22;16247;50.840;4.382;2023-03-01T07:15:48;1.90;99.90
29207;DHT22;16247;50.840;4.382;2023-03-01T07:18:15;2.10;99.90
29207;DHT22;16247;50.840;4.382;2023-03-01T07:20:44;2.00;99.90
29207;DHT22;16247;50.840;4.382;2023-03-01T07:23:10;2.10;99.90
29207;DHT22;16247;50.840;4.382;2023-03-01T07:25:39;2.10;99.90
29207;DHT22;16247;50.840;4.382;2023-03-01T07:28:05;2.10;99.90
29207;DHT22;16247;50.840;4.382;2023-03-01T07:30:31;2.20;99.90
29207;DHT22;16247;50.840;4.382;2023-03-01T07:32:58;2.20;99.90
29207;DHT22;16247;50.840;4.382;2023-03-01T07:35:26;1.90;99.90
29207;DHT22;16247;50.840;4.382;2023-03-01T07:37:53;2.20;99.90
29207;DHT22;16247;50.840;4.382;2023-03-01T07:40:20;2.00;99.90
29207;DHT22;16247;50.840;4.382;2023-03-01T07:42:46;2.30;99.90
29207;DHT22;16247;50.840;4.382;2023-03-01T07:45:12;2.20;99.90
29207;DHT22;16247;50.840;4.382;2023-03-01T07:51:03;2.30;99.90
29207;DHT22;16247;50.840;4.382;2023-03-01T07:53:29;2.20;99.90
29207;DHT22;16247;50.840;4.382;2023-03-01T07:56:08;2.50;99.90
29207;DHT22;16247;50.840;4.382;2023-03-01T07:58:44;2.30;99.90
29207;DHT22;16247;50.840;4.382;2023-03-01T08:01:18;2.40;99.90
29207;DHT22;16247;50.840;4.382;2023-03-01T08:03:48;2.50;99.90
29207;DHT22;16247;50.840;4.382;2023-03-01T08:06:36;2.40;99.90
29207;DHT22;16247;50.840;4.382;2023-03-01T08:09:07;2.60;99.90
29207;DHT22;16247;50.840;4.382;2023-03-01T08:11:40;2.60;99.90
29207;DHT22;16247;50.840;4.382;2023-03-01T08:14:09;2.60;99.90
29207;DHT22;16247;50.840;4.382;2023-03-01T08:16:43;2.80;99.90
29207;DHT22;16247;50.840;4.382;2023-03-01T08:19:19;2.70;99.90
29207;DHT22;16247;50.840;4.382;2023-03-01T08:21:58;2.80;99.90
29207;DHT22;16247;50.840;4.382;2023-03-01T08:27:49;3.00;99.90
29207;DHT22;16247;50.840;4.382;2023-03-01T08:30:34;3.00;99.90
29207;DHT22;16247;50.840;4.382;2023-03-01T08:33:03;2.80;99.90
29207;DHT22;16247;50.840;4.382;2023-03-01T08:35:31;3.10;99.90
29207;DHT22;16247;50.840;4.382;2023-03-01T08:38:37;3.00;99.90
29207;DHT22;16247;50.840;4.382;2023-03-01T08:44:15;3.20;99.90
29207;DHT22;16247;50.840;4.382;2023-03-01T08:46:43;3.10;99.90
29207;DHT22;16247;50.840;4.382;2023-03-01T08:49:16;3.20;99.90
29207;DHT22;16247;50.840;4.382;2023-03-01T08:51:46;3.20;99.90
29207;DHT22;16247;50.840;4.382;2023-03-01T08:54:17;3.10;99.90
29207;DHT22;16247;50.840;4.382;2023-03-01T08:56:44;3.10;99.90
29207;DHT22;16247;50.840;4.382;2023-03-01T08:59:15;3.40;99.90
29207;DHT22;16247;50.840;4.382;2023-03-01T09:01:45;3.50;99.90
29207;DHT22;16247;50.840;4.382;2023-03-01T09:04:12;3.60;99.90
29207;DHT22;16247;50.840;4.382;2023-03-01T09:06:40;3.60;99.90
29207;DHT22;16247;50.840;4.382;2023-03-01T09:09:06;3.30;99.90
29207;DHT22;16247;50.840;4.382;2023-03-01T09:11:40;3.60;99.90
29207;DHT22;16247;50.840;4.382;2023-03-01T09:14:07;3.50;99.90
29207;DHT22;16247;50.840;4.382;2023-03-01T09:16:37;3.60;99.90
29207;DHT22;16247;50.840;4.382;2023-03-01T09:19:06;3.70;99.90
29207;DHT22;16247;50.840;4.382;2023-03-01T09:21:32;4.00;99.90
29207;DHT22;16247;50.840;4.382;2023-03-01T09:23:58;4.00;99.90
29207;DHT22;16247;50.840;4.382;2023-03-01T09:26:24;4.20;99.90
29207;DHT22;16247;50.840;4.382;2023-03-01T09:28:51;4.20;99.90
29207;DHT22;16247;50.840;4.382;2023-03-01T09:31:20;4.40;99.90
29207;DHT22;16247;50.840;4.382;2023-03-01T09:33:49;4.20;99.90
29207;DHT22;16247;50.840;4.382;2023-03-01T09:36:16;4.40;99.90
29207;DHT22;16247;50.840;4.382;2023-03-01T09:38:44;4.50;99.90
29207;DHT22;16247;50.840;4.382;2023-03-01T09:41:47;4.80;99.90
29207;DHT22;16247;50.840;4.382;2023-03-01T09:46:53;4.50;99.90
29207;DHT22;16247;50.840;4.382;2023-03-01T09:49:29;4.60;99.90
29207;DHT22;16247;50.840;4.382;2023-03-01T09:52:34;4.70;99.90
29207;DHT22;16247;50.840;4.382;2023-03-01T09:55:11;4.60;99.90
29207;DHT22;16247;50.840;4.382;2023-03-01T09:57:55;4.80;99.90
29207;DHT22;16247;50.840;4.382;2023-03-01T10:00:36;4.80;99.90
29207;DHT22;16247;50.840;4.382;2023-03-01T10:06:26;4.80;99.90
29207;DHT22;16247;50.840;4.382;2023-03-01T10:08:57;4.80;99.90
29207;DHT22;16247;50.840;4.382;2023-03-01T10:11:32;5.20;99.90
29207;DHT22;16247;50.840;4.382;2023-03-01T10:20:29;5.10;99.90
29207;DHT22;16247;50.840;4.382;2023-03-01T10:23:16;5.20;99.90
29207;DHT22;16247;50.840;4.382;2023-03-01T10:32:40;5.70;99.90
29207;DHT22;16247;50.840;4.382;2023-03-01T10:35:19;5.80;99.90
29207;DHT22;16247;50.840;4.382;2023-03-01T10:41:07;5.90;99.90
29207;DHT22;16247;50.840;4.382;2023-03-01T10:43:52;6.00;99.90
29207;DHT22;16247;50.840;4.382;2023-03-01T10:52:30;6.00;99.90
29207;DHT22;16247;50.840;4.382;2023-03-01T10:58:29;6.30;99.90
29207;DHT22;16247;50.840;4.382;2023-03-01T11:01:04;6.60;99.90
29207;DHT22;16247;50.840;4.382;2023-03-01T11:03:37;6.30;99.90
29207;DHT22;16247;50.840;4.382;2023-03-01T11:06:21;6.60;99.90
29207;DHT22;16247;50.840;4.382;2023-03-01T11:08:50;6.60;99.90
29207;DHT22;16247;50.840;4.382;2023-03-01T11:11:33;6.90;99.90
29207;DHT22;16247;50.840;4.382;2023-03-01T11:14:12;7.00;99.90
29207;DHT22;16247;50.840;4.382;2023-03-01T11:16:42;6.90;99.90
29207;DHT22;16247;50.840;4.382;2023-03-01T11:21:46;7.30;99.90
29207;DHT22;16247;50.840;4.382;2023-03-01T11:24:16;7.40;99.90
29207;DHT22;16247;50.840;4.382;2023-03-01T11:26:51;7.40;99.90
29207;DHT22;16247;50.840;4.382;2023-03-01T11:32:28;7.60;99.90
29207;DHT22;16247;50.840;4.382;2023-03-01T11:35:15;7.60;99.90
29207;DHT22;16247;50.840;4.382;2023-03-01T11:41:25;7.80;99.90
29207;DHT22;16247;50.840;4.382;2023-03-01T11:44:14;8.10;99.90
29207;DHT22;16247;50.840;4.382;2023-03-01T11:55:53;7.90;99.90
29207;DHT22;16247;50.840;4.382;2023-03-01T11:58:33;8.10;99.90
29207;DHT22;16247;50.840;4.382;2023-03-01T12:01:30;8.20;99.90
29207;DHT22;16247;50.840;4.382;2023-03-01T12:12:54;8.00;99.90
29207;DHT22;16247;50.840;4.382;2023-03-01T12:21:16;8.50;99.90
29207;DHT22;16247;50.840;4.382;2023-03-01T12:24:10;8.60;99.90
29207;DHT22;16247;50.840;4.382;2023-03-01T12:40:50;8.10;99.90
29207;DHT22;16247;50.840;4.382;2023-03-01T12:49:19;8.50;99.90
29207;DHT22;16247;50.840;4.382;2023-03-01T12:51:59;8.60;99.90
29207;DHT22;16247;50.840;4.382;2023-03-01T12:54:30;8.70;99.90
29207;DHT22;16247;50.840;4.382;2023-03-01T12:57:03;8.70;99.90
29207;DHT22;16247;50.840;4.382;2023-03-01T12:59:39;8.70;99.90
29207;DHT22;16247;50.840;4.382;2023-03-01T13:02:41;8.90;99.90
29207;DHT22;16247;50.840;4.382;2023-03-01T13:08:37;8.60;99.90
29207;DHT22;16247;50.840;4.382;2023-03-01T13:11:19;8.60;99.90
29207;DHT22;16247;50.840;4.382;2023-03-01T13:14:35;8.80;99.90
29207;DHT22;16247;50.840;4.382;2023-03-01T13:16:41;8.90;99.90
29207;DHT22;16247;50.840;4.382;2023-03-01T13:19:21;9.00;99.90
29207;DHT22;16247;50.840;4.382;2023-03-01T13:21:48;9.00;99.90
29207;DHT22;16247;50.840;4.382;2023-03-01T13:24:40;9.00;99.90
29207;DHT22;16247;50.840;4.382;2023-03-01T13:29:46;9.20;99.90
29207;DHT22;16247;50.840;4.382;2023-03-01T13:32:24;9.60;99.90
29207;DHT22;16247;50.840;4.382;2023-03-01T13:35:44;9.60;99.90
29207;DHT22;16247;50.840;4.382;2023-03-01T13:40:59;9.70;99.90
29207;DHT22;16247;50.840;4.382;2023-03-01T13:43:31;9.80;99.90
29207;DHT22;16247;50.840;4.382;2023-03-01T13:46:10;9.70;99.90
29207;DHT22;16247;50.840;4.382;2023-03-01T13:48:38;9.80;99.90
29207;DHT22;16247;50.840;4.382;2023-03-01T13:51:10;9.90;99.90
29207;DHT22;16247;50.840;4.382;2023-03-01T13:53:41;9.90;99.90
29207;DHT22;16247;50.840;4.382;2023-03-01T13:56:36;9.80;99.90
29207;DHT22;16247;50.840;4.382;2023-03-01T13:59:18;9.60;99.90
29207;DHT22;16247;50.840;4.382;2023-03-01T14:08:20;9.80;99.90
29207;DHT22;16247;50.840;4.382;2023-03-01T14:10:58;9.90;99.90
29207;DHT22;16247;50.840;4.382;2023-03-01T14:13:36;9.90;99.90
29207;DHT22;16247;50.840;4.382;2023-03-01T14:16:30;10.00;99.90
29207;DHT22;16247;50.840;4.382;2023-03-01T14:21:47;9.90;99.90
29207;DHT22;16247;50.840;4.382;2023-03-01T14:24:20;9.70;99.90
29207;DHT22;16247;50.840;4.382;2023-03-01T14:26:50;9.50;99.90
29207;DHT22;16247;50.840;4.382;2023-03-01T14:29:37;9.60;99.90
29207;DHT22;16247;50.840;4.382;2023-03-01T14:32:17;9.80;99.90
29207;DHT22;16247;50.840;4.382;2023-03-01T14:34:45;9.90;99.90
29207;DHT22;16247;50.840;4.382;2023-03-01T14:39:45;9.70;99.90
29207;DHT22;16247;50.840;4.382;2023-03-01T14:42:12;9.80;99.90
29207;DHT22;16247;50.840;4.382;2023-03-01T14:44:42;9.80;99.90
29207;DHT22;16247;50.840;4.382;2023-03-01T14:47:15;10.00;99.90
29207;DHT22;16247;50.840;4.382;2023-03-01T14:49:44;9.70;99.90
29207;DHT22;16247;50.840;4.382;2023-03-01T14:52:23;9.60;99.90
29207;DHT22;16247;50.840;4.382;2023-03-01T14:57:58;9.70;99.90
29207;DHT22;16247;50.840;4.382;2023-03-01T15:00:26;9.60;99.90
29207;DHT22;16247;50.840;4.382;2023-03-01T15:02:56;9.60;99.90
29207;DHT22;16247;50.840;4.382;2023-03-01T15:05:32;9.50;99.90
29207;DHT22;16247;50.840;4.382;2023-03-01T15:08:00;9.50;99.90
29207;DHT22;16247;50.840;4.382;2023-03-01T15:10:29;9.20;99.90
29207;DHT22;16247;50.840;4.382;2023-03-01T15:12:56;9.40;99.90
29207;DHT22;16247;50.840;4.382;2023-03-01T15:15:45;9.50;99.90
29207;DHT22;16247;50.840;4.382;2023-03-01T15:18:21;9.70;99.90
29207;DHT22;16247;50.840;4.382;2023-03-01T15:20:48;9.90;99.90
29207;DHT22;16247;50.840;4.382;2023-03-01T15:23:26;9.90;99.90
29207;DHT22;16247;50.840;4.382;2023-03-01T15:25:54;9.70;99.90
29207;DHT22;16247;50.840;4.382;2023-03-01T15:28:30;9.40;99.90
29207;DHT22;16247;50.840;4.382;2023-03-01T15:31:01;9.50;99.90
29207;DHT22;16247;50.840;4.382;2023-03-01T15:36:03;9.40;99.90
29207;DHT22;16247;50.840;4.382;2023-03-01T15:41:31;9.30;99.90
29207;DHT22;16247;50.840;4.382;2023-03-01T15:44:24;9.50;99.90
29207;DHT22;16247;50.840;4.382;2023-03-01T15:46:50;9.30;99.90
29207;DHT22;16247;50.840;4.382;2023-03-01T15:49:42;9.40;99.90
29207;DHT22;16247;50.840;4.382;2023-03-01T15:52:29;9.40;99.90
29207;DHT22;16247;50.840;4.382;2023-03-01T15:55:28;9.50;99.90
29207;DHT22;16247;50.840;4.382;2023-03-01T15:58:29;9.30;99.90
29207;DHT22;16247;50.840;4.382;2023-03-01T16:02:01;9.00;99.90
29207;DHT22;16247;50.840;4.382;2023-03-01T16:04:59;9.30;99.90
29207;DHT22;16247;50.840;4.382;2023-03-01T16:08:03;9.40;99.90
29207;DHT22;16247;50.840;4.382;2023-03-01T16:11:04;9.60;99.90
29207;DHT22;16247;50.840;4.382;2023-03-01T16:14:14;9.50;99.90
29207;DHT22;16247;50.840;4.382;2023-03-01T16:17:17;9.60;99.90
29207;DHT22;16247;50.840;4.382;2023-03-01T16:20:16;9.80;99.90
29207;DHT22;16247;50.840;4.382;2023-03-01T16:26:56;9.60;99.90
29207;DHT22;16247;50.840;4.382;2023-03-01T16:32:02;9.60;99.90
29207;DHT22;16247;50.840;4.382;2023-03-01T17:13:18;8.90;99.90
29207;DHT22;16247;50.840;4.382;2023-03-01T17:15:56;9.10;99.90
29207;DHT22;16247;50.840;4.382;2023-03-01T17:18:29;8.80;99.90
29207;DHT22;16247;50.840;4.382;2023-03-01T17:21:01;8.80;99.90
29207;DHT22;16247;50.840;4.382;2023-03-01T17:23:28;8.90;99.90
29207;DHT22;16247;50.840;4.382;2023-03-01T17:25:56;8.70;99.90
29207;DHT22;16247;50.840;4.382;2023-03-01T17:28:28;8.60;99.90
29207;DHT22;16247;50.840;4.382;2023-03-01T17:30:58;8.90;99.90
29207;DHT22;16247;50.840;4.382;2023-03-01T17:33:31;8.60;99.90
29207;DHT22;16247;50.840;4.382;2023-03-01T17:36:00;8.30;99.90
29207;DHT22;16247;50.840;4.382;2023-03-01T17:38:28;8.50;99.90
29207;DHT22;16247;50.840;4.382;2023-03-01T17:40:58;8.60;99.90
29207;DHT22;16247;50.840;4.382;2023-03-01T17:43:26;8.40;99.90
29207;DHT22;16247;50.840;4.382;2023-03-01T17:45:53;8.50;99.90
29207;DHT22;16247;50.840;4.382;2023-03-01T17:48:20;8.30;99.90
29207;DHT22;16247;50.840;4.382;2023-03-01T17:50:48;8.30;99.90
29207;DHT22;16247;50.840;4.382;2023-03-01T17:53:16;8.30;99.90
29207;DHT22;16247;50.840;4.382;2023-03-01T17:55:43;8.20;99.90
29207;DHT22;16247;50.840;4.382;2023-03-01T17:58:12;8.30;99.90
29207;DHT22;16247;50.840;4.382;2023-03-01T18:00:41;8.20;99.90
29207;DHT22;16247;50.840;4.382;2023-03-01T18:03:10;8.30;99.90
29207;DHT22;16247;50.840;4.382;2023-03-01T18:05:36;7.80;99.90
29207;DHT22;16247;50.840;4.382;2023-03-01T18:08:08;8.00;99.90
29207;DHT22;16247;50.840;4.382;2023-03-01T18:10:34;8.00;99.90
29207;DHT22;16247;50.840;4.382;2023-03-01T18:13:03;7.70;99.90
29207;DHT22;16247;50.840;4.382;2023-03-01T18:15:31;7.90;99.90
29207;DHT22;16247;50.840;4.382;2023-03-01T18:17:59;7.60;99.90
29207;DHT22;16247;50.840;4.382;2023-03-01T18:20:26;7.70;99.90
29207;DHT22;16247;50.840;4.382;2023-03-01T18:22:52;7.50;99.90
29207;DHT22;16247;50.840;4.382;2023-03-01T18:25:19;7.50;99.90
29207;DHT22;16247;50.840;4.382;2023-03-01T18:27:47;7.30;99.90
29207;DHT22;16247;50.840;4.382;2023-03-01T18:30:18;7.40;99.90
29207;DHT22;16247;50.840;4.382;2023-03-01T18:32:48;7.40;99.90
29207;DHT22;16247;50.840;4.382;2023-03-01T18:35:37;7.60;99.90
29207;DHT22;16247;50.840;4.382;2023-03-01T18:38:05;7.50;99.90
29207;DHT22;16247;50.840;4.382;2023-03-01T18:40:36;7.20;99.90
29207;DHT22;16247;50.840;4.382;2023-03-01T18:43:02;7.60;99.90
29207;DHT22;16247;50.840;4.382;2023-03-01T18:45:30;7.30;99.90
29207;DHT22;16247;50.840;4.382;2023-03-01T18:47:57;7.60;99.90
29207;DHT22;16247;50.840;4.382;2023-03-01T18:50:24;7.20;99.90
29207;DHT22;16247;50.840;4.382;2023-03-01T18:52:51;7.20;99.90
29207;DHT22;16247;50.840;4.382;2023-03-01T18:55:28;7.30;99.90
29207;DHT22;16247;50.840;4.382;2023-03-01T18:57:54;7.50;99.90
29207;DHT22;16247;50.840;4.382;2023-03-01T19:00:20;7.10;99.90
29207;DHT22;16247;50.840;4.382;2023-03-01T19:02:46;7.10;99.90
29207;DHT22;16247;50.840;4.382;2023-03-01T19:05:12;7.20;99.90
29207;DHT22;16247;50.840;4.382;2023-03-01T19:07:39;7.00;99.90
29207;DHT22;16247;50.840;4.382;2023-03-01T19:10:05;7.00;99.90
29207;DHT22;16247;50.840;4.382;2023-03-01T19:12:31;7.00;99.90
29207;DHT22;16247;50.840;4.382;2023-03-01T19:14:56;7.20;99.90
29207;DHT22;16247;50.840;4.382;2023-03-01T19:17:23;6.90;99.90
29207;DHT22;16247;50.840;4.382;2023-03-01T19:19:56;6.90;99.90
29207;DHT22;16247;50.840;4.382;2023-03-01T19:22:28;7.00;99.90
29207;DHT22;16247;50.840;4.382;2023-03-01T19:24:53;7.00;99.90
29207;DHT22;16247;50.840;4.382;2023-03-01T19:27:19;7.00;99.90
29207;DHT22;16247;50.840;4.382;2023-03-01T19:29:48;6.80;99.90
29207;DHT22;16247;50.840;4.382;2023-03-01T19:32:19;6.90;99.90
29207;DHT22;16247;50.840;4.382;2023-03-01T19:34:58;6.90;99.90
29207;DHT22;16247;50.840;4.382;2023-03-01T19:40:25;6.90;99.90
29207;DHT22;16247;50.840;4.382;2023-03-01T19:42:51;6.80;99.90